createdAt,value
2023-03-11T00:00:59.895Z,-23871.13
2023-03-11T00:03:29.161Z,-23871.07
2023-03-11T00:08:17.054Z,-23871.41
2023-03-11T00:10:47.368Z,-23870.06
2023-03-11T00:13:17.972Z,-23869.50
2023-03-11T00:15:48.537Z,-23869.21
2023-03-11T00:18:17.161Z,-23868.93
2023-03-11T00:20:46.462Z,-23868.64
2023-03-11T00:23:14.839Z,-23868.21
2023-03-11T00:25:44.196Z,-23867.45
2023-03-11T00:28:13.393Z,-23867.07
2023-03-11T00:30:42.212Z,-23866.26
2023-03-11T00:33:13.034Z,-23865.25
2023-03-11T00:35:43.088Z,-23864.28
2023-03-11T00:38:14.018Z,-23862.68
2023-03-11T00:40:42.489Z,-23861.04
2023-03-11T00:43:11.172Z,-23859.82
2023-03-11T00:45:39.367Z,-23858.81
2023-03-11T00:48:08.144Z,-23858.00
2023-03-11T00:50:38.341Z,-23856.77
2023-03-11T00:53:07.771Z,-23855.96
2023-03-11T00:55:38.219Z,-23855.36
2023-03-11T00:58:10.565Z,-23854.67
2023-03-11T01:00:45.877Z,-23854.07
2023-03-11T01:03:14.474Z,-23853.10
2023-03-11T01:05:43.847Z,-23852.28
2023-03-11T01:08:13.246Z,-23851.18
2023-03-11T01:10:41.467Z,-23850.24
2023-03-11T01:13:11.229Z,-23849.20
2023-03-11T01:15:40.211Z,-23848.70
2023-03-11T01:18:08.572Z,-23848.23
2023-03-11T01:20:37.547Z,-23847.88
2023-03-11T01:23:06.495Z,-23847.31
2023-03-11T01:25:34.747Z,-23846.84
2023-03-11T01:28:03.363Z,-23846.63
2023-03-11T01:30:31.664Z,-23846.34
2023-03-11T01:32:59.908Z,-23845.78
2023-03-11T01:35:29.323Z,-23844.80
2023-03-11T01:37:58.261Z,-23844.23
2023-03-11T01:40:33.622Z,-23843.76
2023-03-11T01:43:07.498Z,-23843.10
2023-03-11T01:45:39.326Z,-23842.66
2023-03-11T01:48:08.925Z,-23842.54
2023-03-11T01:50:43.587Z,-23841.97
2023-03-11T01:53:11.743Z,-23841.34
2023-03-11T01:55:42.896Z,-23840.49
2023-03-11T01:58:14.155Z,-23839.68
2023-03-11T02:00:44.320Z,-23838.95
2023-03-11T02:03:24.526Z,-23838.77
2023-03-11T02:05:53.639Z,-23838.39
2023-03-11T02:08:22.182Z,-23838.01
2023-03-11T02:10:50.695Z,-23837.95
2023-03-11T02:13:19.145Z,-23837.60
2023-03-11T02:15:47.947Z,-23837.41
2023-03-11T02:18:20.430Z,-23837.22
2023-03-11T02:21:07.905Z,-23836.75
2023-03-11T02:23:50.031Z,-23837.00
2023-03-11T02:26:25.623Z,-23837.76
2023-03-11T02:28:56.727Z,-23838.14
2023-03-11T02:31:25.290Z,-23838.23
2023-03-11T02:33:54.685Z,-23838.36
2023-03-11T02:36:40.237Z,-23838.67
2023-03-11T02:39:10.466Z,-23838.61
2023-03-11T02:41:44.163Z,-23838.61
2023-03-11T02:44:14.004Z,-23838.42
2023-03-11T02:46:42.209Z,-23838.45
2023-03-11T02:49:12.249Z,-23838.80
2023-03-11T02:51:40.894Z,-23838.98
2023-03-11T02:54:12.257Z,-23839.27
2023-03-11T02:56:40.622Z,-23839.61
2023-03-11T02:59:12.559Z,-23839.77
2023-03-11T03:01:41.897Z,-23839.87
2023-03-11T03:04:10.369Z,-23839.96
2023-03-11T03:06:39.050Z,-23840.05
2023-03-11T03:09:07.364Z,-23840.30
2023-03-11T03:11:35.860Z,-23840.30
2023-03-11T03:14:04.202Z,-23840.18
2023-03-11T03:16:32.501Z,-23840.09
2023-03-11T03:19:00.773Z,-23839.93
2023-03-11T03:21:33.112Z,-23840.02
2023-03-11T03:24:01.455Z,-23840.24
2023-03-11T03:26:32.393Z,-23840.15
2023-03-11T03:29:00.899Z,-23839.93
2023-03-11T03:31:29.518Z,-23839.87
2023-03-11T03:33:58.483Z,-23839.55
2023-03-11T03:36:27.022Z,-23839.33
2023-03-11T03:38:59.827Z,-23839.36
2023-03-11T03:41:31.688Z,-23839.05
2023-03-11T03:44:00.504Z,-23838.95
2023-03-11T03:46:29.164Z,-23838.70
2023-03-11T03:48:59.469Z,-23838.20
2023-03-11T03:51:28.543Z,-23837.41
2023-03-11T03:54:07.273Z,-23836.44
2023-03-11T03:56:39.168Z,-23835.75
2023-03-11T03:59:07.904Z,-23835.06
2023-03-11T04:01:40.635Z,-23834.30
2023-03-11T04:04:09.385Z,-23833.45
2023-03-11T04:06:37.767Z,-23833.01
2023-03-11T04:09:07.729Z,-23832.51
2023-03-11T04:11:37.555Z,-23831.56
2023-03-11T04:14:07.870Z,-23831.03
2023-03-11T04:16:40.792Z,-23830.50
2023-03-11T04:19:12.812Z,-23829.64
2023-03-11T04:21:41.463Z,-23829.11
2023-03-11T04:24:09.805Z,-23828.61
2023-03-11T04:26:39.285Z,-23828.64
2023-03-11T04:29:10.108Z,-23828.33
2023-03-11T04:31:42.477Z,-23827.70
2023-03-11T04:34:12.168Z,-23826.97
2023-03-11T04:36:41.786Z,-23826.47
2023-03-11T04:39:10.628Z,-23826.25
2023-03-11T04:41:45.314Z,-23825.96
2023-03-11T04:44:16.995Z,-23826.44
2023-03-11T04:46:51.047Z,-23826.63
2023-03-11T04:49:19.371Z,-23826.50
2023-03-11T04:51:48.312Z,-23826.76
2023-03-11T04:54:17.303Z,-23826.88
2023-03-11T04:56:46.466Z,-23827.01
2023-03-11T04:59:17.689Z,-23827.45
2023-03-11T05:01:46.309Z,-23827.73
2023-03-11T05:04:14.745Z,-23828.01
2023-03-11T05:06:43.383Z,-23828.20
2023-03-11T05:09:12.294Z,-23828.61
2023-03-11T05:11:42.060Z,-23829.14
2023-03-11T05:14:11.207Z,-23829.78
2023-03-11T05:16:39.466Z,-23830.62
2023-03-11T05:19:27.684Z,-23832.00
2023-03-11T05:21:59.172Z,-23833.23
2023-03-11T05:24:27.845Z,-23834.68
2023-03-11T05:26:57.154Z,-23836.31
2023-03-11T05:29:26.394Z,-23838.57
2023-03-11T05:31:54.935Z,-23840.62
2023-03-11T05:34:23.908Z,-23842.76
2023-03-11T05:36:52.210Z,-23845.14
2023-03-11T05:39:20.701Z,-23847.66
2023-03-11T05:41:49.181Z,-23850.24
2023-03-11T05:44:17.382Z,-23853.06
2023-03-11T05:46:45.999Z,-23855.39
2023-03-11T05:49:14.210Z,-23857.78
2023-03-11T05:51:46.925Z,-23859.98
2023-03-11T05:54:17.451Z,-23862.33
2023-03-11T05:56:48.115Z,-23864.56
2023-03-11T05:59:17.798Z,-23866.76
2023-03-11T06:01:48.510Z,-23868.78
2023-03-11T06:04:18.515Z,-23870.09
2023-03-11T06:06:48.407Z,-23870.53
2023-03-11T06:09:18.919Z,-23871.41
2023-03-11T06:11:47.169Z,-23872.57
2023-03-11T06:14:16.001Z,-23873.89
2023-03-11T06:16:45.235Z,-23875.14
2023-03-11T06:19:22.707Z,-23876.40
2023-03-11T06:21:53.443Z,-23877.81
2023-03-11T06:24:21.599Z,-23878.91
2023-03-11T06:26:53.348Z,-23879.10
2023-03-11T06:29:24.554Z,-23879.39
2023-03-11T06:31:53.144Z,-23879.48
2023-03-11T06:34:21.504Z,-23879.64
2023-03-11T06:36:50.049Z,-23880.14
2023-03-11T06:39:18.418Z,-23881.27
2023-03-11T06:41:48.778Z,-23882.43
2023-03-11T06:44:18.027Z,-23883.12
2023-03-11T06:46:46.939Z,-23883.65
2023-03-11T06:49:15.618Z,-23884.56
2023-03-11T06:51:44.255Z,-23885.85
2023-03-11T06:54:13.054Z,-23886.85
2023-03-11T06:56:41.516Z,-23887.98
2023-03-11T06:59:10.462Z,-23890.18
2023-03-11T07:01:38.668Z,-23892.50
2023-03-11T07:04:09.773Z,-23895.45
2023-03-11T07:06:39.200Z,-23899.15
2023-03-11T07:09:11.333Z,-23902.36
2023-03-11T07:11:42.439Z,-23904.02
2023-03-11T07:14:14.421Z,-23905.21
2023-03-11T07:16:45.541Z,-23906.56
2023-03-11T07:19:38.523Z,-23908.19
2023-03-11T07:22:06.668Z,-23909.10
2023-03-11T07:24:38.166Z,-23909.88
2023-03-11T07:27:06.527Z,-23910.92
2023-03-11T07:29:34.698Z,-23912.08
2023-03-11T07:32:03.883Z,-23911.89
2023-03-11T07:34:32.885Z,-23911.89
2023-03-11T07:37:01.184Z,-23912.27
2023-03-11T07:39:29.961Z,-23912.39
2023-03-11T07:41:58.498Z,-23912.80
2023-03-11T07:44:37.908Z,-23912.77
2023-03-11T07:47:06.773Z,-23912.55
2023-03-11T07:49:35.977Z,-23912.17
2023-03-11T07:52:05.076Z,-23911.64
2023-03-11T07:54:33.269Z,-23911.26
2023-03-11T07:57:01.776Z,-23911.20
2023-03-11T07:59:29.958Z,-23910.98
2023-03-11T08:01:58.676Z,-23910.86
2023-03-11T08:04:26.884Z,-23911.48
2023-03-11T08:06:55.090Z,-23912.64
2023-03-11T08:09:23.415Z,-23913.86
2023-03-11T08:11:52.646Z,-23915.34
2023-03-11T08:14:20.800Z,-23917.22
2023-03-11T08:16:49.264Z,-23918.88
2023-03-11T08:19:17.661Z,-23920.89
2023-03-11T08:21:45.832Z,-23922.37
2023-03-11T08:24:15.875Z,-23923.65
2023-03-11T08:26:44.422Z,-23923.93
2023-03-11T08:29:16.970Z,-23924.06
2023-03-11T08:31:46.818Z,-23924.09
2023-03-11T08:34:17.135Z,-23924.25
2023-03-11T08:36:45.950Z,-23924.31
2023-03-11T08:39:14.304Z,-23924.09
2023-03-11T08:41:42.892Z,-23924.37
2023-03-11T08:44:11.142Z,-23924.59
2023-03-11T08:46:39.526Z,-23924.09
2023-03-11T08:49:10.995Z,-23923.68
2023-03-11T08:51:39.283Z,-23922.21
2023-03-11T08:54:10.089Z,-23919.79
2023-03-11T08:56:39.663Z,-23917.03
2023-03-11T08:59:08.692Z,-23914.58
2023-03-11T09:01:37.788Z,-23911.20
2023-03-11T09:04:05.949Z,-23906.18
2023-03-11T09:06:44.711Z,-23901.54
2023-03-11T09:09:13.959Z,-23898.37
2023-03-11T09:11:43.604Z,-23896.36
2023-03-11T09:14:15.514Z,-23895.11
2023-03-11T09:16:45.318Z,-23894.23
2023-03-11T09:19:13.491Z,-23893.54
2023-03-11T09:21:41.709Z,-23892.94
2023-03-11T09:24:10.139Z,-23892.16
2023-03-11T09:26:39.320Z,-23891.21
2023-03-11T09:29:08.706Z,-23890.21
2023-03-11T09:31:40.122Z,-23889.11
2023-03-11T09:34:08.789Z,-23888.20
2023-03-11T09:36:37.363Z,-23887.45
2023-03-11T09:39:05.559Z,-23886.88
2023-03-11T09:41:59.335Z,-23886.54
2023-03-11T09:44:37.554Z,-23885.88
2023-03-11T09:47:26.790Z,-23885.85
2023-03-11T09:50:18.338Z,-23886.10
2023-03-11T09:53:20.999Z,-23886.48
2023-03-11T09:56:01.575Z,-23886.73
2023-03-11T09:58:52.701Z,-23887.07
2023-03-11T10:01:56.696Z,-23887.45
2023-03-11T10:04:38.002Z,-23888.20
2023-03-11T10:07:11.492Z,-23888.87
2023-03-11T10:09:48.679Z,-23889.15
2023-03-11T10:12:23.762Z,-23889.49
2023-03-11T10:14:58.782Z,-23889.99
2023-03-11T10:17:48.686Z,-23890.27
2023-03-11T10:20:27.101Z,-23889.96
2023-03-11T10:23:29.358Z,-23889.37
2023-03-11T10:26:06.724Z,-23889.34
2023-03-11T10:28:56.850Z,-23889.46
2023-03-11T10:31:26.921Z,-23889.62
2023-03-11T10:34:29.061Z,-23890.31
2023-03-11T10:36:57.304Z,-23891.15
2023-03-11T10:39:25.744Z,-23891.62
2023-03-11T10:41:57.927Z,-23891.94
2023-03-11T10:44:29.867Z,-23892.09
2023-03-11T10:46:59.588Z,-23892.50
2023-03-11T10:49:28.106Z,-23892.66
2023-03-11T10:51:57.805Z,-23892.66
2023-03-11T10:54:38.593Z,-23892.75
2023-03-11T10:57:30.175Z,-23893.07
2023-03-11T11:00:00.190Z,-23893.38
2023-03-11T11:02:43.719Z,-23893.60
2023-03-11T11:05:18.186Z,-23894.36
2023-03-11T11:07:47.397Z,-23894.86
2023-03-11T11:10:21.541Z,-23894.92
2023-03-11T11:12:54.313Z,-23894.95
2023-03-11T11:15:26.327Z,-23895.20
2023-03-11T11:18:01.081Z,-23895.32
2023-03-11T11:20:31.475Z,-23895.61
2023-03-11T11:23:01.707Z,-23895.54
2023-03-11T11:25:38.065Z,-23895.83
2023-03-11T11:28:19.876Z,-23896.05
2023-03-11T11:30:57.193Z,-23896.83
2023-03-11T11:33:40.367Z,-23897.74
2023-03-11T11:36:13.642Z,-23898.81
2023-03-11T11:38:42.210Z,-23899.88
2023-03-11T11:41:15.219Z,-23900.66
2023-03-11T11:43:50.899Z,-23901.95
2023-03-11T11:46:31.555Z,-23903.17
2023-03-11T11:49:08.683Z,-23904.11
2023-03-11T11:52:00.053Z,-23905.05
2023-03-11T11:54:50.051Z,-23905.84
2023-03-11T11:57:19.897Z,-23906.90
2023-03-11T11:59:48.156Z,-23907.25
2023-03-11T12:02:16.574Z,-23907.38
2023-03-11T12:04:50.896Z,-23907.69
2023-03-11T12:07:51.766Z,-23908.50
2023-03-11T12:10:24.464Z,-23909.25
2023-03-11T12:13:05.969Z,-23909.88
2023-03-11T12:15:48.150Z,-23910.98
2023-03-11T12:18:37.664Z,-23911.92
2023-03-11T12:21:23.776Z,-23912.39
2023-03-11T12:24:26.239Z,-23913.02
2023-03-11T12:26:54.351Z,-23913.64
2023-03-11T12:29:31.738Z,-23914.68
2023-03-11T12:32:00.443Z,-23915.50
2023-03-11T12:34:29.239Z,-23915.84
2023-03-11T12:36:59.368Z,-23916.34
2023-03-11T12:39:31.922Z,-23917.00
2023-03-11T12:42:19.704Z,-23917.38
2023-03-11T12:44:49.038Z,-23917.50
2023-03-11T12:47:19.187Z,-23917.91
2023-03-11T12:49:49.563Z,-23918.72
2023-03-11T12:52:20.465Z,-23919.57
2023-03-11T12:54:49.913Z,-23920.30
2023-03-11T12:57:18.179Z,-23920.89
2023-03-11T13:00:12.585Z,-23921.36
2023-03-11T13:03:09.712Z,-23922.18
2023-03-11T13:06:15.564Z,-23922.96
2023-03-11T13:08:48.287Z,-23924.31
2023-03-11T13:11:31.754Z,-23925.06
2023-03-11T13:14:30.205Z,-23926.41
2023-03-11T13:17:27.403Z,-23927.91
2023-03-11T13:19:59.281Z,-23929.61
2023-03-11T13:22:43.845Z,-23931.05
2023-03-11T13:25:28.709Z,-23932.11
2023-03-11T13:28:32.096Z,-23932.77
2023-03-11T13:31:15.130Z,-23933.43
2023-03-11T13:33:50.003Z,-23934.30
2023-03-11T13:36:54.256Z,-23935.21
2023-03-11T13:39:33.445Z,-23935.81
2023-03-11T13:42:04.797Z,-23936.56
2023-03-11T13:44:37.171Z,-23937.50
2023-03-11T13:47:16.749Z,-23938.82
2023-03-11T13:49:59.882Z,-23939.41
2023-03-11T13:52:44.861Z,-23939.95
2023-03-11T13:55:19.620Z,-23941.11
2023-03-11T13:57:55.376Z,-23942.36
2023-03-11T14:00:25.342Z,-23943.23
2023-03-11T14:02:55.488Z,-23943.61
2023-03-11T14:05:28.060Z,-23944.17
2023-03-11T14:07:56.343Z,-23944.99
2023-03-11T14:10:29.602Z,-23945.93
2023-03-11T14:13:14.461Z,-23947.49
2023-03-11T14:16:04.788Z,-23948.37
2023-03-11T14:18:43.753Z,-23949.34
2023-03-11T14:21:14.223Z,-23950.16
2023-03-11T14:23:44.368Z,-23950.78
2023-03-11T14:26:23.988Z,-23951.79
2023-03-11T14:29:12.203Z,-23952.72
2023-03-11T14:31:41.878Z,-23953.23
2023-03-11T14:34:10.899Z,-23954.23
2023-03-11T14:36:46.012Z,-23955.07
2023-03-11T14:39:25.585Z,-23955.67
2023-03-11T14:42:18.953Z,-23956.42
2023-03-11T14:44:59.190Z,-23957.23
2023-03-11T14:47:46.290Z,-23958.05
2023-03-11T14:50:17.009Z,-23958.48
2023-03-11T14:53:24.181Z,-23959.11
2023-03-11T14:55:58.624Z,-23959.52
2023-03-11T14:58:26.833Z,-23960.05
2023-03-11T15:01:05.848Z,-23960.71
2023-03-11T15:03:36.055Z,-23961.90
2023-03-11T15:06:18.758Z,-23963.43
2023-03-11T15:08:52.072Z,-23964.46
2023-03-11T15:11:25.421Z,-23965.43
2023-03-11T15:13:54.076Z,-23965.71
2023-03-11T15:16:25.824Z,-23966.31
2023-03-11T15:18:54.867Z,-23967.47
2023-03-11T15:21:24.106Z,-23968.16
2023-03-11T15:23:55.873Z,-23969.35
2023-03-11T15:26:25.907Z,-23970.44
2023-03-11T15:28:58.929Z,-23971.22
2023-03-11T15:31:32.443Z,-23971.85
2023-03-11T15:34:10.382Z,-23972.72
2023-03-11T15:36:44.089Z,-23973.57
2023-03-11T15:39:18.364Z,-23974.13
2023-03-11T15:41:57.946Z,-23975.16
2023-03-11T15:44:41.835Z,-23975.98
2023-03-11T15:47:18.067Z,-23976.57
2023-03-11T15:49:46.681Z,-23977.36
2023-03-11T15:52:16.623Z,-23977.89
2023-03-11T15:54:54.670Z,-23978.98
2023-03-11T15:57:26.774Z,-23980.11
2023-03-11T15:59:56.243Z,-23980.92
2023-03-11T16:02:26.553Z,-23981.83
2023-03-11T16:04:54.841Z,-23982.46
2023-03-11T16:07:38.139Z,-23983.55
2023-03-11T16:10:08.745Z,-23984.39
2023-03-11T16:12:44.687Z,-23984.86
2023-03-11T16:15:36.003Z,-23985.77
2023-03-11T16:18:05.548Z,-23986.46
2023-03-11T16:20:45.100Z,-23987.08
2023-03-11T16:23:21.620Z,-23987.24
2023-03-11T16:25:49.783Z,-23987.65
2023-03-11T16:28:18.891Z,-23987.74
2023-03-11T16:30:47.501Z,-23988.18
2023-03-11T16:33:20.392Z,-23988.40
2023-03-11T16:35:48.900Z,-23988.71
2023-03-11T16:38:23.309Z,-23989.09
2023-03-11T16:41:01.765Z,-23989.52
2023-03-11T16:43:30.219Z,-23989.80
2023-03-11T16:45:59.110Z,-23990.08
2023-03-11T16:48:27.937Z,-23990.21
2023-03-11T16:50:56.090Z,-23990.62
2023-03-11T16:53:25.354Z,-23990.49
2023-03-11T16:55:54.366Z,-23990.77
2023-03-11T16:58:23.186Z,-23991.30
2023-03-11T17:00:52.290Z,-23991.68
2023-03-11T17:03:21.814Z,-23992.09
2023-03-11T17:05:51.439Z,-23992.71
2023-03-11T17:08:25.298Z,-23993.27
2023-03-11T17:10:53.818Z,-23993.68
2023-03-11T17:13:22.192Z,-23994.18
2023-03-11T17:16:01.142Z,-23994.34
2023-03-11T17:18:42.971Z,-23994.55
2023-03-11T17:21:13.388Z,-23994.87
2023-03-11T17:23:41.753Z,-23994.84
2023-03-11T17:26:15.139Z,-23994.99
2023-03-11T17:28:44.758Z,-23995.28
2023-03-11T17:31:14.214Z,-23995.57
2023-03-11T17:33:44.034Z,-23995.12
2023-03-11T17:36:14.420Z,-23994.65
2023-03-11T17:38:46.333Z,-23994.46
2023-03-11T17:41:15.914Z,-23994.31
2023-03-11T17:43:44.237Z,-23994.62
2023-03-11T17:46:17.408Z,-23994.21
2023-03-11T17:48:47.068Z,-23994.49
2023-03-11T17:51:20.132Z,-23995.21
2023-03-11T17:53:49.347Z,-23995.85
2023-03-11T17:56:21.925Z,-23996.41
2023-03-11T17:58:51.771Z,-23997.28
2023-03-11T18:01:22.464Z,-23997.69
2023-03-11T18:03:51.476Z,-23997.94
2023-03-11T18:06:20.004Z,-23997.97
2023-03-11T18:08:48.308Z,-23998.50
2023-03-11T18:11:20.684Z,-23998.97
2023-03-11T18:13:49.134Z,-23999.28
2023-03-11T18:16:28.988Z,-23999.69
2023-03-11T18:18:57.300Z,-24000.16
2023-03-11T18:21:27.866Z,-24000.44
2023-03-11T18:23:59.966Z,-24000.91
2023-03-11T18:26:29.068Z,-24001.41
2023-03-11T18:28:58.935Z,-24001.53
2023-03-11T18:31:28.126Z,-24000.97
2023-03-11T18:34:00.018Z,-24000.63
2023-03-11T18:36:33.033Z,-24000.85
2023-03-11T18:39:05.965Z,-24001.10
2023-03-11T18:41:35.289Z,-24001.44
2023-03-11T18:44:09.846Z,-24001.72
2023-03-11T18:46:41.610Z,-24001.69
2023-03-11T18:49:11.827Z,-24001.63
2023-03-11T18:51:41.194Z,-24001.88
2023-03-11T18:54:10.367Z,-24002.22
2023-03-11T18:56:38.533Z,-24002.41
2023-03-11T18:59:08.750Z,-24002.50
2023-03-11T19:01:36.941Z,-24002.69
2023-03-11T19:04:05.274Z,-24002.72
2023-03-11T19:06:33.861Z,-24002.85
2023-03-11T19:09:02.357Z,-24002.91
2023-03-11T19:11:30.756Z,-24003.06
2023-03-11T19:14:00.133Z,-24003.38
2023-03-11T19:16:28.432Z,-24003.22
2023-03-11T19:18:56.583Z,-24002.91
2023-03-11T19:21:26.054Z,-24002.44
2023-03-11T19:23:55.457Z,-24002.38
2023-03-11T19:26:41.443Z,-24001.88
2023-03-11T19:29:12.182Z,-24001.10
2023-03-11T19:31:40.552Z,-24000.66
2023-03-11T19:34:08.704Z,-24000.79
2023-03-11T19:36:36.885Z,-24001.13
2023-03-11T19:39:05.495Z,-24000.82
2023-03-11T19:41:33.698Z,-24000.29
2023-03-11T19:44:05.903Z,-23999.91
2023-03-11T19:46:36.472Z,-23999.66
2023-03-11T19:49:04.957Z,-23999.16
2023-03-11T19:51:48.598Z,-23998.28
2023-03-11T19:54:18.667Z,-23998.03
2023-03-11T19:56:50.412Z,-23997.97
2023-03-11T19:59:19.305Z,-23997.00
2023-03-11T20:01:47.535Z,-23996.25
2023-03-11T20:04:16.605Z,-23995.75
2023-03-11T20:06:45.478Z,-23995.12
2023-03-11T20:09:15.951Z,-23995.09
2023-03-11T20:11:45.893Z,-23994.71
2023-03-11T20:14:16.091Z,-23994.46
2023-03-11T20:16:44.496Z,-23994.31
2023-03-11T20:19:13.762Z,-23994.18
2023-03-11T20:21:44.581Z,-23994.31
2023-03-11T20:24:13.908Z,-23993.78
2023-03-11T20:26:43.363Z,-23992.71
2023-03-11T20:29:11.783Z,-23990.86
2023-03-11T20:31:39.946Z,-23989.55
2023-03-11T20:34:08.176Z,-23988.99
2023-03-11T20:36:36.537Z,-23988.05
2023-03-11T20:39:06.434Z,-23987.24
2023-03-11T20:41:40.348Z,-23986.43
2023-03-11T20:44:09.131Z,-23985.61
2023-03-11T20:46:41.823Z,-23984.96
2023-03-11T20:49:11.310Z,-23984.30
2023-03-11T20:51:42.066Z,-23983.48
2023-03-11T20:54:17.158Z,-23982.83
2023-03-11T20:56:45.445Z,-23981.99
2023-03-11T20:59:14.198Z,-23981.11
2023-03-11T21:01:42.598Z,-23980.36
2023-03-11T21:04:11.429Z,-23979.52
2023-03-11T21:06:41.202Z,-23979.05
2023-03-11T21:09:13.556Z,-23978.32
2023-03-11T21:11:42.497Z,-23978.04
2023-03-11T21:14:10.915Z,-23977.76
2023-03-11T21:16:43.251Z,-23977.52
2023-03-11T21:19:13.616Z,-23977.13
2023-03-11T21:21:41.985Z,-23976.70
2023-03-11T21:24:11.338Z,-23976.61
2023-03-11T21:26:41.809Z,-23976.45
2023-03-11T21:29:10.789Z,-23976.20
2023-03-11T21:31:39.131Z,-23975.73
2023-03-11T21:34:09.272Z,-23975.26
2023-03-11T21:36:38.048Z,-23974.85
2023-03-11T21:39:07.053Z,-23974.29
2023-03-11T21:41:35.260Z,-23973.76
2023-03-11T21:44:08.153Z,-23973.57
2023-03-11T21:46:37.302Z,-23973.38
2023-03-11T21:49:06.110Z,-23973.01
2023-03-11T21:51:35.724Z,-23972.66
2023-03-11T21:54:05.449Z,-23972.41
2023-03-11T21:56:35.158Z,-23971.97
2023-03-11T21:59:03.986Z,-23971.63
2023-03-11T22:01:35.365Z,-23971.29
2023-03-11T22:04:03.947Z,-23971.07
2023-03-11T22:06:33.576Z,-23971.07
2023-03-11T22:09:02.279Z,-23971.16
2023-03-11T22:11:32.529Z,-23971.16
2023-03-11T22:14:01.166Z,-23971.01
2023-03-11T22:16:29.869Z,-23970.91
2023-03-11T22:18:58.821Z,-23970.50
2023-03-11T22:21:27.083Z,-23970.25
2023-03-11T22:23:55.213Z,-23970.04
2023-03-11T22:26:24.430Z,-23970.00
2023-03-11T22:28:52.903Z,-23969.85
2023-03-11T22:31:20.989Z,-23969.38
2023-03-11T22:33:49.885Z,-23968.94
2023-03-11T22:36:18.174Z,-23968.63
2023-03-11T22:38:46.454Z,-23968.38
2023-03-11T22:41:19.456Z,-23968.03
2023-03-11T22:43:47.567Z,-23967.63
2023-03-11T22:46:15.873Z,-23967.03
2023-03-11T22:48:44.398Z,-23966.03
2023-03-11T22:51:15.134Z,-23965.21
2023-03-11T22:53:43.874Z,-23964.62
2023-03-11T22:56:13.654Z,-23963.74
2023-03-11T22:58:42.088Z,-23962.93
2023-03-11T23:01:10.995Z,-23962.52
2023-03-11T23:03:39.498Z,-23961.68
2023-03-11T23:06:08.518Z,-23960.89
2023-03-11T23:08:37.002Z,-23960.14
2023-03-11T23:11:08.264Z,-23959.33
2023-03-11T23:13:37.674Z,-23957.77
2023-03-11T23:16:10.629Z,-23955.51
2023-03-11T23:18:39.062Z,-23952.82
2023-03-11T23:21:20.058Z,-23950.41
2023-03-11T23:23:48.466Z,-23948.34
2023-03-11T23:26:16.762Z,-23946.27
2023-03-11T23:28:45.566Z,-23944.33
2023-03-11T23:31:15.352Z,-23941.98
2023-03-11T23:33:44.598Z,-23939.97
2023-03-11T23:36:15.627Z,-23937.75
2023-03-11T23:38:47.356Z,-23936.00
2023-03-11T23:41:17.370Z,-23934.37
2023-03-11T23:43:45.584Z,-23933.08
2023-03-11T23:46:15.377Z,-23932.02
2023-03-11T23:48:43.897Z,-23930.80
2023-03-11T23:51:14.783Z,-23929.86
2023-03-11T23:53:43.068Z,-23929.04
2023-03-11T23:56:14.433Z,-23928.67
2023-03-11T23:58:43.307Z,-23927.88
